Lafayette, New Jersey
Current Conditions -  °F | °C
As of 5:30 AM on Tuesday 27 Jan 2015 (Local Time) from KFWN Reporting Station
Light Snow Light Snow  
Wind Chill: 15°   Ceiling: 1900
Heat Index: 21°   Visibility: 1.5mi
Dew Point: 17°   Wind: 5mph
Humidity: 85%   Direction: 40°NE
Pressure: 29.7"   Gusts: NA
Location:  41.1°N, 74.69°W
Report Text: KFWN 271030Z AUTO 04004KT 1 1/2SM -SN BR OVC019 M06/M08 A2970 RMK AO2 P0000 T10611083
Loading
Personal Weather Stations






























Interactive Weather Map New forecast layout! Learn more

10-Day Weather Forecast

Advertisements
Track Severe Weather on mobile